Caldwell, West Virginia
Current Conditions -  °F | °C
As of 4:55 PM on Friday 28 Nov 2014 (Local Time) from KLWB Reporting Station
Clear Clear  
Wind Chill: 29°   Ceiling: Unl
Heat Index: 29°   Visibility: 10mi
Dew Point: 17°   Wind: 0mph
Humidity: 62%   Direction: NA
Pressure: 30.21"   Gusts: NA
Location:  37.78°N, 80.39°W
Report Text: KLWB 282155Z AUTO 00000KT 10SM CLR M02/M08 A3021 RMK AO2 T10161081
Loading
Personal Weather Stations






























Interactive Weather Map New forecast layout! Learn more

10-Day Weather Forecast

Advertisements
Track Severe Weather on mobile